createdAt,value
2022-10-11T00:00:46.469Z,77.47
2022-10-11T00:03:31.722Z,77.58
2022-10-11T00:06:00.055Z,77.80
2022-10-11T00:08:28.022Z,78.04
2022-10-11T00:10:59.202Z,78.15
2022-10-11T00:13:27.758Z,78.20
2022-10-11T00:15:56.605Z,78.18
2022-10-11T00:18:25.460Z,77.89
2022-10-11T00:21:08.381Z,78.00
2022-10-11T00:23:37.163Z,78.46
2022-10-11T00:26:08.045Z,78.65
2022-10-11T00:28:37.270Z,78.82
2022-10-11T00:31:14.869Z,78.80
2022-10-11T00:33:42.993Z,78.87
2022-10-11T00:36:14.706Z,78.98
2022-10-11T00:38:44.055Z,78.93
2022-10-11T00:41:12.280Z,78.94
2022-10-11T00:43:40.248Z,79.34
2022-10-11T00:46:30.014Z,79.60
2022-10-11T00:49:07.400Z,79.74
2022-10-11T00:51:41.704Z,79.94
2022-10-11T00:54:15.160Z,80.07
2022-10-11T00:56:45.850Z,80.22
2022-10-11T00:59:19.888Z,80.28
2022-10-11T01:01:48.162Z,80.42
2022-10-11T01:04:16.310Z,80.70
2022-10-11T01:06:45.205Z,80.83
2022-10-11T01:09:14.607Z,81.01
2022-10-11T01:11:44.517Z,80.98
2022-10-11T01:14:21.807Z,81.07
2022-10-11T01:17:08.442Z,81.27
2022-10-11T01:20:22.130Z,81.37
2022-10-11T01:23:11.119Z,81.64
2022-10-11T01:26:04.824Z,81.62
2022-10-11T01:29:10.337Z,81.67
2022-10-11T01:31:49.384Z,81.63
2022-10-11T01:34:40.194Z,81.50
2022-10-11T01:37:19.328Z,81.82
2022-10-11T01:39:59.057Z,81.99
2022-10-11T01:42:28.869Z,82.22
2022-10-11T01:44:58.843Z,82.29
2022-10-11T01:47:27.121Z,82.51
2022-10-11T01:50:01.053Z,82.68
2022-10-11T01:52:34.149Z,82.70
2022-10-11T01:55:13.803Z,82.70
2022-10-11T01:58:00.103Z,82.60
2022-10-11T02:00:40.250Z,82.65
2022-10-11T02:03:34.874Z,82.78
2022-10-11T02:06:29.504Z,82.68
2022-10-11T02:09:28.777Z,82.81
2022-10-11T02:12:10.287Z,82.72
2022-10-11T02:14:50.294Z,82.75
2022-10-11T02:17:22.636Z,82.77
2022-10-11T02:19:54.618Z,82.71
2022-10-11T02:22:26.485Z,82.83
2022-10-11T02:24:59.077Z,82.84
2022-10-11T02:27:31.430Z,82.94
2022-10-11T02:30:02.701Z,83.05
2022-10-11T02:32:32.319Z,83.14
2022-10-11T02:35:02.506Z,83.09
2022-10-11T02:37:53.518Z,82.96
2022-10-11T02:40:27.716Z,83.04
2022-10-11T02:43:11.061Z,83.05
2022-10-11T02:45:47.556Z,83.15
2022-10-11T02:48:16.011Z,83.28
2022-10-11T02:50:44.186Z,83.38
2022-10-11T02:53:12.362Z,83.53
2022-10-11T02:55:40.637Z,83.56
2022-10-11T02:58:08.712Z,83.53
2022-10-11T03:00:36.720Z,83.68
2022-10-11T03:03:04.647Z,83.75
2022-10-11T03:05:37.263Z,83.94
2022-10-11T03:08:05.399Z,84.10
2022-10-11T03:10:34.904Z,84.30
2022-10-11T03:13:02.846Z,84.36
2022-10-11T03:15:31.047Z,84.47
2022-10-11T03:17:59.054Z,84.35
2022-10-11T03:20:26.944Z,84.51
2022-10-11T03:22:54.854Z,84.23
2022-10-11T03:25:22.927Z,83.73
2022-10-11T03:27:50.897Z,83.53
2022-10-11T03:30:20.300Z,83.54
2022-10-11T03:32:48.165Z,83.95
2022-10-11T03:35:16.243Z,84.07
2022-10-11T03:37:44.977Z,84.14
2022-10-11T03:40:14.164Z,84.13
2022-10-11T03:42:42.194Z,84.08
2022-10-11T03:45:10.947Z,84.24
2022-10-11T03:47:40.389Z,84.19
2022-10-11T03:50:09.978Z,83.99
2022-10-11T03:52:37.863Z,83.94
2022-10-11T03:55:07.378Z,83.94
2022-10-11T03:57:35.336Z,83.89
2022-10-11T04:00:05.387Z,83.91
2022-10-11T04:02:38.288Z,83.85
2022-10-11T04:05:07.567Z,83.78
2022-10-11T04:07:35.510Z,83.64
2022-10-11T04:10:03.724Z,83.65
2022-10-11T04:12:31.801Z,83.61
2022-10-11T04:14:59.829Z,83.64
2022-10-11T04:17:27.799Z,83.63
2022-10-11T04:19:55.766Z,83.65
2022-10-11T04:22:23.942Z,83.76
2022-10-11T04:24:52.319Z,83.95
2022-10-11T04:27:20.242Z,84.15
2022-10-11T04:29:48.155Z,84.32
2022-10-11T04:32:16.041Z,84.49
2022-10-11T04:34:44.094Z,84.42
2022-10-11T04:37:12.177Z,84.69
2022-10-11T04:39:40.068Z,84.65
2022-10-11T04:42:08.013Z,84.73
2022-10-11T04:44:36.189Z,84.82
2022-10-11T04:47:04.796Z,84.94
2022-10-11T04:49:32.939Z,84.87
2022-10-11T04:52:00.928Z,84.74
2022-10-11T04:54:29.087Z,84.81
2022-10-11T04:56:57.168Z,84.97
2022-10-11T04:59:25.145Z,85.02
2022-10-11T05:01:53.575Z,85.14
2022-10-11T05:04:21.681Z,85.30
2022-10-11T05:06:49.756Z,85.23
2022-10-11T05:09:17.932Z,85.26
2022-10-11T05:11:45.893Z,85.51
2022-10-11T05:14:14.274Z,85.75
2022-10-11T05:16:42.343Z,86.07
2022-10-11T05:19:10.621Z,86.39
2022-10-11T05:21:38.508Z,86.27
2022-10-11T05:24:06.942Z,86.21
2022-10-11T05:26:34.900Z,85.97
2022-10-11T05:29:03.320Z,85.71
2022-10-11T05:31:31.316Z,85.65
2022-10-11T05:34:00.100Z,85.76
2022-10-11T05:36:28.249Z,85.77
2022-10-11T05:38:56.422Z,85.72
2022-10-11T05:41:24.700Z,85.53
2022-10-11T05:43:52.671Z,85.44
2022-10-11T05:46:20.744Z,85.50
2022-10-11T05:48:48.813Z,85.68
2022-10-11T05:51:16.742Z,86.05
2022-10-11T05:53:44.751Z,86.04
2022-10-11T05:56:21.594Z,85.84
2022-10-11T05:58:51.044Z,85.77
2022-10-11T06:01:20.175Z,85.67
2022-10-11T06:03:48.315Z,85.49
2022-10-11T06:06:17.205Z,85.42
2022-10-11T06:08:45.481Z,85.65
2022-10-11T06:11:25.399Z,86.14
2022-10-11T06:14:00.777Z,85.68
2022-10-11T06:16:28.849Z,85.34
2022-10-11T06:18:57.706Z,85.15
2022-10-11T06:21:26.014Z,85.05
2022-10-11T06:23:59.841Z,84.95
2022-10-11T06:26:30.007Z,84.74
2022-10-11T06:28:58.893Z,84.71
2022-10-11T06:31:27.415Z,84.69
2022-10-11T06:33:55.342Z,84.71
2022-10-11T06:36:23.354Z,84.46
2022-10-11T06:38:53.069Z,84.23
2022-10-11T06:41:27.874Z,84.29
2022-10-11T06:43:56.584Z,84.23
2022-10-11T06:46:27.370Z,84.13
2022-10-11T06:48:56.671Z,84.27
2022-10-11T06:51:25.868Z,84.14
2022-10-11T06:53:56.903Z,83.90
2022-10-11T06:56:26.729Z,83.67
2022-10-11T06:58:56.860Z,83.58
2022-10-11T07:01:26.065Z,83.91
2022-10-11T07:03:55.367Z,83.99
2022-10-11T07:06:26.251Z,83.96
2022-10-11T07:08:54.966Z,83.53
2022-10-11T07:11:26.622Z,83.45
2022-10-11T07:14:00.760Z,83.55
2022-10-11T07:16:29.011Z,83.55
2022-10-11T07:19:00.899Z,83.33
2022-10-11T07:21:31.863Z,83.08
2022-10-11T07:24:00.855Z,82.85
2022-10-11T07:26:36.644Z,82.53
2022-10-11T07:29:10.857Z,82.00
2022-10-11T07:31:41.399Z,81.66
2022-10-11T07:34:10.391Z,81.50
2022-10-11T07:36:38.521Z,81.45
2022-10-11T07:39:07.989Z,81.20
2022-10-11T07:41:38.174Z,80.60
2022-10-11T07:44:08.732Z,79.97
2022-10-11T07:46:36.644Z,79.66
2022-10-11T07:49:05.190Z,79.47
2022-10-11T07:51:33.303Z,79.73
2022-10-11T07:54:07.031Z,79.72
2022-10-11T07:56:37.137Z,78.91
2022-10-11T07:59:06.387Z,78.88
2022-10-11T08:01:34.366Z,79.01
2022-10-11T08:04:02.292Z,78.28
2022-10-11T08:06:32.789Z,77.82
2022-10-11T08:09:01.888Z,77.39
2022-10-11T08:11:36.020Z,76.71
2022-10-11T08:14:08.936Z,75.55
2022-10-11T08:16:38.883Z,74.25
2022-10-11T08:19:07.466Z,73.54
2022-10-11T08:21:36.302Z,72.83
2022-10-11T08:24:05.772Z,72.39
2022-10-11T08:26:34.095Z,72.46
2022-10-11T08:29:05.501Z,72.05
2022-10-11T08:31:34.787Z,70.56
2022-10-11T08:34:02.870Z,67.26
2022-10-11T08:36:31.796Z,65.74
2022-10-11T08:39:00.901Z,62.74
2022-10-11T08:41:49.921Z,59.65
2022-10-11T08:44:25.257Z,58.09
2022-10-11T08:47:02.755Z,57.25
2022-10-11T08:49:33.482Z,57.39
2022-10-11T08:52:15.712Z,56.97
2022-10-11T08:54:47.137Z,56.79
2022-10-11T08:57:22.827Z,57.09
2022-10-11T08:59:58.229Z,57.18
2022-10-11T09:03:06.451Z,57.05
2022-10-11T09:05:51.272Z,57.50
2022-10-11T09:09:04.348Z,57.20
2022-10-11T09:12:13.510Z,57.30
2022-10-11T09:15:08.998Z,58.48
2022-10-11T09:17:50.989Z,58.97
2022-10-11T09:20:41.925Z,58.87
2022-10-11T09:23:34.137Z,59.17
2022-10-11T09:26:14.702Z,59.45
2022-10-11T09:29:01.152Z,59.60
2022-10-11T09:31:30.407Z,59.40
2022-10-11T09:34:10.485Z,59.48
2022-10-11T09:37:15.825Z,60.30
2022-10-11T09:39:57.508Z,60.32
2022-10-11T09:42:25.868Z,60.42
2022-10-11T09:44:55.480Z,60.76
2022-10-11T09:47:27.143Z,61.23
2022-10-11T09:50:01.595Z,61.06
2022-10-11T09:52:30.137Z,61.02
2022-10-11T09:55:00.712Z,60.62
2022-10-11T09:57:32.649Z,60.28
2022-10-11T10:00:19.819Z,60.27
2022-10-11T10:02:49.772Z,60.52
2022-10-11T10:05:20.421Z,60.40
2022-10-11T10:08:20.525Z,60.38
2022-10-11T10:11:04.670Z,60.41
2022-10-11T10:13:52.264Z,60.37
2022-10-11T10:16:21.811Z,60.53
2022-10-11T10:18:58.533Z,60.67
2022-10-11T10:21:37.355Z,60.54
2022-10-11T10:24:09.762Z,60.13
2022-10-11T10:26:37.957Z,59.96
2022-10-11T10:29:08.717Z,59.28
2022-10-11T10:34:58.304Z,58.88
2022-10-11T10:37:53.867Z,58.75
2022-10-11T10:40:29.123Z,58.31
2022-10-11T10:42:58.035Z,58.21
2022-10-11T10:45:41.260Z,57.95
2022-10-11T10:48:53.803Z,57.69
2022-10-11T10:51:32.935Z,57.80
2022-10-11T10:54:10.240Z,57.83
2022-10-11T10:56:46.679Z,57.54
2022-10-11T10:59:20.653Z,56.93
2022-10-11T11:02:40.760Z,56.40
2022-10-11T11:05:30.628Z,55.79
2022-10-11T11:08:13.370Z,54.58
2022-10-11T11:10:57.617Z,54.23
2022-10-11T11:13:55.692Z,53.79
2022-10-11T11:17:08.312Z,53.69
2022-10-11T11:19:36.731Z,53.20
2022-10-11T11:22:22.884Z,52.75
2022-10-11T11:25:07.208Z,52.93
2022-10-11T11:27:58.658Z,52.14
2022-10-11T11:30:41.260Z,51.97
2022-10-11T11:33:12.149Z,51.78
2022-10-11T11:35:48.780Z,51.58
2022-10-11T11:38:40.764Z,51.13
2022-10-11T11:41:17.798Z,50.81
2022-10-11T11:44:03.736Z,49.02
2022-10-11T11:46:41.944Z,49.03
2022-10-11T11:49:21.639Z,47.70
2022-10-11T11:51:50.841Z,45.60
2022-10-11T11:54:44.105Z,43.95
2022-10-11T11:57:30.553Z,42.68
2022-10-11T12:00:19.673Z,39.56
2022-10-11T12:03:00.019Z,38.62
2022-10-11T12:05:32.215Z,37.53
2022-10-11T12:08:20.496Z,37.37
2022-10-11T12:10:51.383Z,35.40
2022-10-11T12:13:34.665Z,33.60
2022-10-11T12:16:11.589Z,32.68
2022-10-11T12:18:57.790Z,31.16
2022-10-11T12:21:29.854Z,29.95
2022-10-11T12:24:00.790Z,28.73
2022-10-11T12:26:28.664Z,28.26
2022-10-11T12:29:05.802Z,26.71
2022-10-11T12:31:36.955Z,26.16
2022-10-11T12:34:07.985Z,25.69
2022-10-11T12:36:44.556Z,25.20
2022-10-11T12:39:18.747Z,25.03
2022-10-11T12:41:47.871Z,24.36
2022-10-11T12:44:18.908Z,24.77
2022-10-11T12:46:57.841Z,24.16
2022-10-11T12:49:56.217Z,24.41
2022-10-11T12:52:36.971Z,24.18
2022-10-11T12:55:10.919Z,25.33
2022-10-11T12:58:00.929Z,26.52
2022-10-11T13:00:32.594Z,27.11
2022-10-11T13:03:28.441Z,28.07
2022-10-11T13:06:01.992Z,29.78
2022-10-11T13:08:34.702Z,30.41
2022-10-11T13:11:08.860Z,31.11
2022-10-11T13:13:44.331Z,31.55
2022-10-11T13:16:22.052Z,32.20
2022-10-11T13:18:54.044Z,33.43
2022-10-11T13:21:36.784Z,33.98
2022-10-11T13:24:13.076Z,34.69
2022-10-11T13:26:43.218Z,35.57
2022-10-11T13:29:31.253Z,36.15
2022-10-11T13:32:01.021Z,36.71
2022-10-11T13:34:34.422Z,37.64
2022-10-11T13:37:04.144Z,38.63
2022-10-11T13:39:38.004Z,39.06
2022-10-11T13:42:10.909Z,39.35
2022-10-11T13:44:39.546Z,40.05
2022-10-11T13:47:13.184Z,40.64
2022-10-11T13:49:47.291Z,41.37
2022-10-11T13:52:18.344Z,42.45
2022-10-11T13:55:09.239Z,43.24
2022-10-11T13:57:47.212Z,43.73
2022-10-11T14:00:15.266Z,44.96
2022-10-11T14:02:58.362Z,45.92
2022-10-11T14:05:34.106Z,46.19
2022-10-11T14:08:06.207Z,46.41
2022-10-11T14:10:34.600Z,46.67
2022-10-11T14:13:23.338Z,47.70
2022-10-11T14:16:10.176Z,48.36
2022-10-11T14:18:40.739Z,48.85
2022-10-11T14:21:20.615Z,49.66
2022-10-11T14:23:53.776Z,50.95
2022-10-11T14:26:23.873Z,51.18
2022-10-11T14:29:00.860Z,51.35
2022-10-11T14:31:31.214Z,51.29
2022-10-11T14:33:59.714Z,52.82
2022-10-11T14:36:28.067Z,53.07
2022-10-11T14:38:56.135Z,53.32
2022-10-11T14:41:24.284Z,54.09
2022-10-11T14:43:53.365Z,54.57
2022-10-11T14:46:24.915Z,55.12
2022-10-11T14:48:55.953Z,55.56
2022-10-11T14:51:31.065Z,56.18
2022-10-11T14:53:58.976Z,56.50
2022-10-11T14:56:26.989Z,56.86
2022-10-11T14:58:54.900Z,57.40
2022-10-11T15:01:22.842Z,57.77
2022-10-11T15:03:51.087Z,58.29
2022-10-11T15:06:26.533Z,58.90
2022-10-11T15:08:55.177Z,59.15
2022-10-11T15:11:24.472Z,59.37
2022-10-11T15:13:52.423Z,59.78
2022-10-11T15:16:21.791Z,60.00
2022-10-11T15:18:52.999Z,60.55
2022-10-11T15:21:24.283Z,60.77
2022-10-11T15:23:53.622Z,61.70
2022-10-11T15:26:29.540Z,61.95
2022-10-11T15:28:58.090Z,62.00
2022-10-11T15:31:26.299Z,62.29
2022-10-11T15:33:54.237Z,62.60
2022-10-11T15:36:22.861Z,62.82
2022-10-11T15:38:51.437Z,63.25
2022-10-11T15:41:20.233Z,63.37
2022-10-11T15:43:49.364Z,63.55
2022-10-11T15:46:20.878Z,63.88
2022-10-11T15:48:50.501Z,64.24
2022-10-11T15:51:19.073Z,65.00
2022-10-11T15:53:47.512Z,65.44
2022-10-11T15:56:18.748Z,65.23
2022-10-11T15:58:47.027Z,65.59
2022-10-11T16:01:19.976Z,65.75
2022-10-11T16:03:49.574Z,65.54
2022-10-11T16:06:19.185Z,65.36
2022-10-11T16:08:48.190Z,65.43
2022-10-11T16:11:16.196Z,65.86
2022-10-11T16:13:45.153Z,66.04
2022-10-11T16:16:13.211Z,66.16
2022-10-11T16:18:41.304Z,65.99
2022-10-11T16:21:11.711Z,66.14
2022-10-11T16:23:39.796Z,66.54
2022-10-11T16:26:12.049Z,67.14
2022-10-11T16:28:41.014Z,67.43
2022-10-11T16:31:16.932Z,67.66
2022-10-11T16:33:48.193Z,67.44
2022-10-11T16:36:40.839Z,67.22
2022-10-11T16:39:16.043Z,67.80
2022-10-11T16:41:44.716Z,68.32
2022-10-11T16:44:14.906Z,68.90
2022-10-11T16:46:48.643Z,69.24
2022-10-11T16:49:19.786Z,69.20
2022-10-11T16:51:48.165Z,69.35
2022-10-11T16:54:20.450Z,69.70
2022-10-11T16:56:50.197Z,70.48
2022-10-11T16:59:18.728Z,70.84
2022-10-11T17:01:46.804Z,70.95
2022-10-11T17:04:15.389Z,71.16
2022-10-11T17:06:44.175Z,71.22
2022-10-11T17:09:12.963Z,71.44
2022-10-11T17:11:41.444Z,71.86
2022-10-11T17:14:11.795Z,72.22
2022-10-11T17:16:40.148Z,72.37
2022-10-11T17:19:14.057Z,72.62
2022-10-11T17:21:42.244Z,72.56
2022-10-11T17:24:10.201Z,72.73
2022-10-11T17:26:38.170Z,72.85
2022-10-11T17:29:06.137Z,72.99
2022-10-11T17:31:36.567Z,73.28
2022-10-11T17:34:04.640Z,73.37
2022-10-11T17:36:36.302Z,73.68
2022-10-11T17:39:07.644Z,73.72
2022-10-11T17:41:36.741Z,74.20
2022-10-11T17:44:05.006Z,74.30
2022-10-11T17:46:33.604Z,74.09
2022-10-11T17:49:06.316Z,73.99
2022-10-11T17:51:36.440Z,73.82
2022-10-11T17:54:06.435Z,74.21
2022-10-11T17:56:37.910Z,74.38
2022-10-11T17:59:07.953Z,74.50
2022-10-11T18:01:36.410Z,74.62
2022-10-11T18:04:06.343Z,74.72
2022-10-11T18:06:39.485Z,74.80
2022-10-11T18:09:07.751Z,74.96
2022-10-11T18:11:36.743Z,75.10
2022-10-11T18:14:05.644Z,75.16
2022-10-11T18:16:35.042Z,75.28
2022-10-11T18:19:05.776Z,75.20
2022-10-11T18:21:35.034Z,75.19
2022-10-11T18:24:06.595Z,75.22
2022-10-11T18:26:34.598Z,75.14
2022-10-11T18:29:02.668Z,75.46
2022-10-11T18:31:33.826Z,75.53
2022-10-11T18:34:03.319Z,75.45
2022-10-11T18:36:32.517Z,75.45
2022-10-11T18:39:02.562Z,75.53
2022-10-11T18:41:32.301Z,75.37
2022-10-11T18:44:06.305Z,75.60
2022-10-11T18:46:35.145Z,75.64
2022-10-11T18:49:03.936Z,75.82
2022-10-11T18:51:38.050Z,75.97
2022-10-11T18:54:08.172Z,76.14
2022-10-11T18:56:37.103Z,76.25
2022-10-11T18:59:07.180Z,76.33
2022-10-11T19:01:38.337Z,76.41
2022-10-11T19:04:09.078Z,76.72
2022-10-11T19:06:41.058Z,76.69
2022-10-11T19:09:12.779Z,76.78
2022-10-11T19:11:41.779Z,76.84
2022-10-11T19:14:15.330Z,76.83
2022-10-11T19:16:49.385Z,76.85
2022-10-11T19:19:19.725Z,76.95
2022-10-11T19:21:48.881Z,77.05
2022-10-11T19:24:17.609Z,77.02
2022-10-11T19:26:46.151Z,77.01
2022-10-11T19:29:16.619Z,77.11
2022-10-11T19:31:50.438Z,77.19
2022-10-11T19:34:19.877Z,77.26
2022-10-11T19:36:50.778Z,77.17
2022-10-11T19:39:20.815Z,77.10
2022-10-11T19:41:50.129Z,77.18
2022-10-11T19:44:18.350Z,77.20
2022-10-11T19:46:53.884Z,77.34
2022-10-11T19:49:26.033Z,77.41
2022-10-11T19:51:55.638Z,77.36
2022-10-11T19:54:24.066Z,77.40
2022-10-11T19:56:52.745Z,77.48
2022-10-11T19:59:20.824Z,77.56
2022-10-11T20:01:52.634Z,77.67
2022-10-11T20:04:50.457Z,77.67
2022-10-11T20:07:10.555Z,77.62
2022-10-11T20:09:38.430Z,77.53
2022-10-11T20:12:07.288Z,77.66
2022-10-11T20:14:35.613Z,77.68
2022-10-11T20:17:03.840Z,77.93
2022-10-11T20:19:31.991Z,77.89
2022-10-11T20:22:01.019Z,78.04
2022-10-11T20:24:33.143Z,78.14
2022-10-11T20:27:04.624Z,78.02
2022-10-11T20:29:33.007Z,78.16
2022-10-11T20:32:00.973Z,78.08
2022-10-11T20:34:29.150Z,78.06
2022-10-11T20:36:57.319Z,78.21
2022-10-11T20:39:25.455Z,78.38
2022-10-11T20:41:53.390Z,78.36
2022-10-11T20:44:21.540Z,78.36
2022-10-11T20:46:49.709Z,78.37
2022-10-11T20:49:20.119Z,78.51
2022-10-11T20:51:48.835Z,78.51
2022-10-11T20:54:17.413Z,78.57
2022-10-11T20:56:45.746Z,78.59
2022-10-11T20:59:13.629Z,78.60
2022-10-11T21:01:41.919Z,78.55
2022-10-11T21:04:18.326Z,78.35
2022-10-11T21:06:48.416Z,78.56
2022-10-11T21:09:17.401Z,78.64
2022-10-11T21:11:46.514Z,78.63
2022-10-11T21:14:14.786Z,78.68
2022-10-11T21:16:42.756Z,78.58
2022-10-11T21:19:14.101Z,78.60
2022-10-11T21:21:42.880Z,78.76
2022-10-11T21:24:11.048Z,78.59
2022-10-11T21:26:39.012Z,78.53
2022-10-11T21:29:08.935Z,78.37
2022-10-11T21:31:37.019Z,78.53
2022-10-11T21:34:06.761Z,78.58
2022-10-11T21:36:35.533Z,78.39
2022-10-11T21:39:03.909Z,78.12
2022-10-11T21:41:31.970Z,77.84
2022-10-11T21:44:00.065Z,77.64
2022-10-11T21:47:04.779Z,77.50
2022-10-11T21:49:19.857Z,77.73
2022-10-11T21:51:48.937Z,77.78
2022-10-11T21:54:17.233Z,77.68
2022-10-11T21:56:45.145Z,77.55
2022-10-11T21:59:13.089Z,77.70
2022-10-11T22:01:42.042Z,77.93
2022-10-11T22:04:11.109Z,78.01
2022-10-11T22:06:40.132Z,77.97
2022-10-11T22:09:09.055Z,77.92
2022-10-11T22:11:37.404Z,77.86
2022-10-11T22:14:05.333Z,77.74
2022-10-11T22:16:34.980Z,77.93
2022-10-11T22:19:03.256Z,78.05
2022-10-11T22:21:31.536Z,78.12
2022-10-11T22:23:59.421Z,78.31
2022-10-11T22:26:31.049Z,78.29
2022-10-11T22:29:00.422Z,78.69
2022-10-11T22:31:30.383Z,78.98
2022-10-11T22:34:00.600Z,79.12
2022-10-11T22:36:33.907Z,79.19
2022-10-11T22:39:07.879Z,79.23
2022-10-11T22:41:36.487Z,79.38
2022-10-11T22:44:04.986Z,79.52
2022-10-11T22:46:33.196Z,79.74
2022-10-11T22:49:01.321Z,79.84
2022-10-11T22:51:29.294Z,80.03
2022-10-11T22:53:57.360Z,80.18
2022-10-11T22:56:25.438Z,80.35
2022-10-11T22:58:53.323Z,80.41
2022-10-11T23:01:21.574Z,80.47
2022-10-11T23:03:50.849Z,80.46
2022-10-11T23:06:19.003Z,80.55
2022-10-11T23:08:47.018Z,80.62
2022-10-11T23:11:15.198Z,80.66
2022-10-11T23:13:43.269Z,80.71
2022-10-11T23:16:13.186Z,80.80
2022-10-11T23:18:41.866Z,80.84
2022-10-11T23:21:10.346Z,80.78
2022-10-11T23:23:40.016Z,80.80
2022-10-11T23:26:11.917Z,80.92
2022-10-11T23:28:40.457Z,81.04
2022-10-11T23:31:10.780Z,81.08
2022-10-11T23:33:39.309Z,81.05
2022-10-11T23:36:17.576Z,81.07
2022-10-11T23:38:49.993Z,80.99
2022-10-11T23:41:18.270Z,80.95
2022-10-11T23:43:46.343Z,80.97
2022-10-11T23:46:15.154Z,80.95
2022-10-11T23:48:43.203Z,80.93
2022-10-11T23:51:11.685Z,81.03
2022-10-11T23:53:39.655Z,80.93
2022-10-11T23:56:08.648Z,81.16
2022-10-11T23:58:36.718Z,81.31
